sensor_id;sensor_type;location;lat;lon;timestamp;temperature;humidity
49218;DHT22;35045;51.194;7.268;2023-05-07T00:02:01;15.40;99.90
49218;DHT22;35045;51.194;7.268;2023-05-07T00:04:29;15.40;99.90
49218;DHT22;35045;51.194;7.268;2023-05-07T00:07:02;15.40;99.90
49218;DHT22;35045;51.194;7.268;2023-05-07T00:09:28;15.40;99.90
49218;DHT22;35045;51.194;7.268;2023-05-07T00:11:54;15.50;99.90
49218;DHT22;35045;51.194;7.268;2023-05-07T00:14:20;15.50;99.90
49218;DHT22;35045;51.194;7.268;2023-05-07T00:16:47;15.50;99.90
49218;DHT22;35045;51.194;7.268;2023-05-07T00:19:13;15.50;99.90
49218;DHT22;35045;51.194;7.268;2023-05-07T00:21:39;15.40;99.90
49218;DHT22;35045;51.194;7.268;2023-05-07T00:24:05;15.40;99.90
49218;DHT22;35045;51.194;7.268;2023-05-07T00:26:31;15.40;99.90
49218;DHT22;35045;51.194;7.268;2023-05-07T00:28:57;15.50;99.90
49218;DHT22;35045;51.194;7.268;2023-05-07T00:31:24;15.50;99.90
49218;DHT22;35045;51.194;7.268;2023-05-07T00:33:50;15.50;99.90
49218;DHT22;35045;51.194;7.268;2023-05-07T00:36:16;15.40;99.90
49218;DHT22;35045;51.194;7.268;2023-05-07T00:38:42;15.40;99.90
49218;DHT22;35045;51.194;7.268;2023-05-07T00:41:08;15.40;99.90
49218;DHT22;35045;51.194;7.268;2023-05-07T00:43:34;15.40;99.90
49218;DHT22;35045;51.194;7.268;2023-05-07T00:46:00;15.40;99.90
49218;DHT22;35045;51.194;7.268;2023-05-07T00:48:27;15.50;99.90
49218;DHT22;35045;51.194;7.268;2023-05-07T00:50:54;15.40;99.90
49218;DHT22;35045;51.194;7.268;2023-05-07T00:53:20;15.40;99.90
49218;DHT22;35045;51.194;7.268;2023-05-07T00:55:47;15.30;99.90
49218;DHT22;35045;51.194;7.268;2023-05-07T00:58:14;15.20;99.90
49218;DHT22;35045;51.194;7.268;2023-05-07T01:00:40;15.20;99.90
49218;DHT22;35045;51.194;7.268;2023-05-07T01:03:07;15.10;99.90
49218;DHT22;35045;51.194;7.268;2023-05-07T01:05:33;15.10;99.90
49218;DHT22;35045;51.194;7.268;2023-05-07T01:08:00;15.10;99.90
49218;DHT22;35045;51.194;7.268;2023-05-07T01:10:26;15.10;99.90
49218;DHT22;35045;51.194;7.268;2023-05-07T01:12:54;15.20;99.90
49218;DHT22;35045;51.194;7.268;2023-05-07T01:15:20;15.30;99.90
49218;DHT22;35045;51.194;7.268;2023-05-07T01:17:46;15.30;99.90
49218;DHT22;35045;51.194;7.268;2023-05-07T01:20:13;15.30;99.90
49218;DHT22;35045;51.194;7.268;2023-05-07T01:22:40;15.40;99.90
49218;DHT22;35045;51.194;7.268;2023-05-07T01:25:07;15.30;99.90
49218;DHT22;35045;51.194;7.268;2023-05-07T01:27:34;15.30;99.90
49218;DHT22;35045;51.194;7.268;2023-05-07T01:30:01;15.30;99.90
49218;DHT22;35045;51.194;7.268;2023-05-07T01:32:47;15.30;99.90
49218;DHT22;35045;51.194;7.268;2023-05-07T01:35:29;15.30;99.90
49218;DHT22;35045;51.194;7.268;2023-05-07T01:37:56;15.40;99.90
49218;DHT22;35045;51.194;7.268;2023-05-07T01:40:24;15.30;99.90
49218;DHT22;35045;51.194;7.268;2023-05-07T01:42:50;15.30;99.90
49218;DHT22;35045;51.194;7.268;2023-05-07T01:45:17;15.30;99.90
49218;DHT22;35045;51.194;7.268;2023-05-07T01:47:43;15.40;99.90
49218;DHT22;35045;51.194;7.268;2023-05-07T01:50:10;15.30;99.90
49218;DHT22;35045;51.194;7.268;2023-05-07T01:52:37;15.30;99.90
49218;DHT22;35045;51.194;7.268;2023-05-07T01:55:04;15.30;99.90
49218;DHT22;35045;51.194;7.268;2023-05-07T01:57:31;15.30;99.90
49218;DHT22;35045;51.194;7.268;2023-05-07T01:59:57;15.20;99.90
49218;DHT22;35045;51.194;7.268;2023-05-07T02:02:23;15.30;99.90
49218;DHT22;35045;51.194;7.268;2023-05-07T02:04:50;15.30;99.90
49218;DHT22;35045;51.194;7.268;2023-05-07T02:07:16;15.30;99.90
49218;DHT22;35045;51.194;7.268;2023-05-07T02:09:42;15.30;99.90
49218;DHT22;35045;51.194;7.268;2023-05-07T02:12:08;15.30;99.90
49218;DHT22;35045;51.194;7.268;2023-05-07T02:14:34;15.30;99.90
49218;DHT22;35045;51.194;7.268;2023-05-07T02:17:00;15.20;99.90
49218;DHT22;35045;51.194;7.268;2023-05-07T02:19:26;15.20;99.90
49218;DHT22;35045;51.194;7.268;2023-05-07T02:21:52;15.20;99.90
49218;DHT22;35045;51.194;7.268;2023-05-07T02:24:19;15.20;99.90
49218;DHT22;35045;51.194;7.268;2023-05-07T02:26:45;15.20;99.90
49218;DHT22;35045;51.194;7.268;2023-05-07T02:29:11;15.20;99.90
49218;DHT22;35045;51.194;7.268;2023-05-07T02:31:37;15.20;99.90
49218;DHT22;35045;51.194;7.268;2023-05-07T02:34:03;15.10;99.90
49218;DHT22;35045;51.194;7.268;2023-05-07T02:36:29;15.10;99.90
49218;DHT22;35045;51.194;7.268;2023-05-07T02:38:56;15.00;99.90
49218;DHT22;35045;51.194;7.268;2023-05-07T02:41:22;15.00;99.90
49218;DHT22;35045;51.194;7.268;2023-05-07T02:43:48;15.00;99.90
49218;DHT22;35045;51.194;7.268;2023-05-07T02:46:14;15.00;99.90
49218;DHT22;35045;51.194;7.268;2023-05-07T02:48:41;15.00;99.90
49218;DHT22;35045;51.194;7.268;2023-05-07T02:51:07;14.90;99.90
49218;DHT22;35045;51.194;7.268;2023-05-07T02:53:33;14.90;99.90
49218;DHT22;35045;51.194;7.268;2023-05-07T02:56:00;14.90;99.90
49218;DHT22;35045;51.194;7.268;2023-05-07T02:58:27;14.80;99.90
49218;DHT22;35045;51.194;7.268;2023-05-07T03:00:53;14.70;99.90
49218;DHT22;35045;51.194;7.268;2023-05-07T03:03:23;14.70;99.90
49218;DHT22;35045;51.194;7.268;2023-05-07T03:05:49;14.70;99.90
49218;DHT22;35045;51.194;7.268;2023-05-07T03:08:15;14.80;99.90
49218;DHT22;35045;51.194;7.268;2023-05-07T03:10:41;14.70;99.90
49218;DHT22;35045;51.194;7.268;2023-05-07T03:13:07;14.70;99.90
49218;DHT22;35045;51.194;7.268;2023-05-07T03:15:33;14.70;99.90
49218;DHT22;35045;51.194;7.268;2023-05-07T03:18:00;14.70;99.90
49218;DHT22;35045;51.194;7.268;2023-05-07T03:20:26;14.60;99.90
49218;DHT22;35045;51.194;7.268;2023-05-07T03:22:52;14.60;99.90
49218;DHT22;35045;51.194;7.268;2023-05-07T03:25:18;14.60;99.90
49218;DHT22;35045;51.194;7.268;2023-05-07T03:27:44;14.50;99.90
49218;DHT22;35045;51.194;7.268;2023-05-07T03:30:11;14.50;99.90
49218;DHT22;35045;51.194;7.268;2023-05-07T03:32:37;14.50;99.90
49218;DHT22;35045;51.194;7.268;2023-05-07T03:35:04;14.50;99.90
49218;DHT22;35045;51.194;7.268;2023-05-07T03:37:30;14.40;99.90
49218;DHT22;35045;51.194;7.268;2023-05-07T03:39:56;14.50;99.90
49218;DHT22;35045;51.194;7.268;2023-05-07T03:42:22;14.40;99.90
49218;DHT22;35045;51.194;7.268;2023-05-07T03:44:49;14.40;99.90
49218;DHT22;35045;51.194;7.268;2023-05-07T03:47:15;14.20;99.90
49218;DHT22;35045;51.194;7.268;2023-05-07T03:49:41;14.20;99.90
49218;DHT22;35045;51.194;7.268;2023-05-07T03:52:07;14.20;99.90
49218;DHT22;35045;51.194;7.268;2023-05-07T03:54:33;14.20;99.90
49218;DHT22;35045;51.194;7.268;2023-05-07T03:56:59;14.20;99.90
49218;DHT22;35045;51.194;7.268;2023-05-07T03:59:26;14.20;99.90
49218;DHT22;35045;51.194;7.268;2023-05-07T04:01:52;14.20;99.90
49218;DHT22;35045;51.194;7.268;2023-05-07T04:04:18;14.20;99.90
49218;DHT22;35045;51.194;7.268;2023-05-07T04:06:44;14.30;99.90
49218;DHT22;35045;51.194;7.268;2023-05-07T04:09:10;14.20;99.90
49218;DHT22;35045;51.194;7.268;2023-05-07T04:11:36;14.20;99.90
49218;DHT22;35045;51.194;7.268;2023-05-07T04:14:03;14.20;99.90
49218;DHT22;35045;51.194;7.268;2023-05-07T04:16:29;14.10;99.90
49218;DHT22;35045;51.194;7.268;2023-05-07T04:18:55;14.10;99.90
49218;DHT22;35045;51.194;7.268;2023-05-07T04:21:21;14.10;99.90
49218;DHT22;35045;51.194;7.268;2023-05-07T04:23:48;14.00;99.90
49218;DHT22;35045;51.194;7.268;2023-05-07T04:26:15;14.10;99.90
49218;DHT22;35045;51.194;7.268;2023-05-07T04:28:42;14.10;99.90
49218;DHT22;35045;51.194;7.268;2023-05-07T04:31:08;14.10;99.90
49218;DHT22;35045;51.194;7.268;2023-05-07T04:33:34;14.10;99.90
49218;DHT22;35045;51.194;7.268;2023-05-07T04:36:03;14.10;99.90
49218;DHT22;35045;51.194;7.268;2023-05-07T04:38:30;14.20;99.90
49218;DHT22;35045;51.194;7.268;2023-05-07T04:41:04;14.20;99.90
49218;DHT22;35045;51.194;7.268;2023-05-07T04:43:31;14.30;99.90
49218;DHT22;35045;51.194;7.268;2023-05-07T04:45:57;14.30;99.90
49218;DHT22;35045;51.194;7.268;2023-05-07T04:48:23;14.40;99.90
49218;DHT22;35045;51.194;7.268;2023-05-07T04:50:50;14.40;99.90
49218;DHT22;35045;51.194;7.268;2023-05-07T04:53:19;14.50;99.90
49218;DHT22;35045;51.194;7.268;2023-05-07T04:55:45;14.50;99.90
49218;DHT22;35045;51.194;7.268;2023-05-07T04:58:12;14.50;99.90
49218;DHT22;35045;51.194;7.268;2023-05-07T05:00:38;14.60;99.90
49218;DHT22;35045;51.194;7.268;2023-05-07T05:03:06;14.70;99.90
49218;DHT22;35045;51.194;7.268;2023-05-07T05:05:33;14.70;99.90
49218;DHT22;35045;51.194;7.268;2023-05-07T05:07:59;14.80;99.90
49218;DHT22;35045;51.194;7.268;2023-05-07T05:10:25;14.80;99.90
49218;DHT22;35045;51.194;7.268;2023-05-07T05:12:51;14.90;99.90
49218;DHT22;35045;51.194;7.268;2023-05-07T05:15:18;15.00;99.90
49218;DHT22;35045;51.194;7.268;2023-05-07T05:17:44;15.00;99.90
49218;DHT22;35045;51.194;7.268;2023-05-07T05:20:10;15.00;99.90
49218;DHT22;35045;51.194;7.268;2023-05-07T05:22:38;15.10;99.90
49218;DHT22;35045;51.194;7.268;2023-05-07T05:25:04;15.10;99.90
49218;DHT22;35045;51.194;7.268;2023-05-07T05:27:30;15.10;99.90
49218;DHT22;35045;51.194;7.268;2023-05-07T05:29:56;15.10;99.90
49218;DHT22;35045;51.194;7.268;2023-05-07T05:32:23;15.20;99.90
49218;DHT22;35045;51.194;7.268;2023-05-07T05:34:49;15.20;99.90
49218;DHT22;35045;51.194;7.268;2023-05-07T05:37:15;15.30;99.90
49218;DHT22;35045;51.194;7.268;2023-05-07T05:39:42;15.40;99.90
49218;DHT22;35045;51.194;7.268;2023-05-07T05:42:08;15.50;99.90
49218;DHT22;35045;51.194;7.268;2023-05-07T05:44:34;15.60;99.90
49218;DHT22;35045;51.194;7.268;2023-05-07T05:47:00;15.70;99.90
49218;DHT22;35045;51.194;7.268;2023-05-07T05:49:26;15.80;99.90
49218;DHT22;35045;51.194;7.268;2023-05-07T05:51:52;15.80;99.90
49218;DHT22;35045;51.194;7.268;2023-05-07T05:54:19;15.90;99.90
49218;DHT22;35045;51.194;7.268;2023-05-07T05:56:45;16.00;99.90
49218;DHT22;35045;51.194;7.268;2023-05-07T05:59:11;16.10;99.90
49218;DHT22;35045;51.194;7.268;2023-05-07T06:01:38;16.10;99.90
49218;DHT22;35045;51.194;7.268;2023-05-07T06:04:04;16.20;99.90
49218;DHT22;35045;51.194;7.268;2023-05-07T06:06:30;16.30;99.90
49218;DHT22;35045;51.194;7.268;2023-05-07T06:08:57;16.30;99.90
49218;DHT22;35045;51.194;7.268;2023-05-07T06:11:23;16.30;99.90
49218;DHT22;35045;51.194;7.268;2023-05-07T06:13:49;16.40;99.90
49218;DHT22;35045;51.194;7.268;2023-05-07T06:16:16;16.40;99.90
49218;DHT22;35045;51.194;7.268;2023-05-07T06:18:42;16.50;99.90
49218;DHT22;35045;51.194;7.268;2023-05-07T06:21:10;16.60;99.90
49218;DHT22;35045;51.194;7.268;2023-05-07T06:23:36;16.70;99.90
49218;DHT22;35045;51.194;7.268;2023-05-07T06:26:02;16.80;99.90
49218;DHT22;35045;51.194;7.268;2023-05-07T06:28:28;16.90;99.90
49218;DHT22;35045;51.194;7.268;2023-05-07T06:31:17;16.90;99.90
49218;DHT22;35045;51.194;7.268;2023-05-07T06:33:46;17.00;99.90
49218;DHT22;35045;51.194;7.268;2023-05-07T06:36:12;17.00;99.90
49218;DHT22;35045;51.194;7.268;2023-05-07T06:38:39;17.10;99.90
49218;DHT22;35045;51.194;7.268;2023-05-07T06:41:08;17.10;99.90
49218;DHT22;35045;51.194;7.268;2023-05-07T06:43:34;17.20;99.90
49218;DHT22;35045;51.194;7.268;2023-05-07T06:46:01;17.30;99.90
49218;DHT22;35045;51.194;7.268;2023-05-07T06:48:27;17.20;99.90
49218;DHT22;35045;51.194;7.268;2023-05-07T06:50:53;17.20;99.90
49218;DHT22;35045;51.194;7.268;2023-05-07T06:53:21;17.20;99.90
49218;DHT22;35045;51.194;7.268;2023-05-07T06:55:47;17.20;99.90
49218;DHT22;35045;51.194;7.268;2023-05-07T06:58:13;17.20;99.90
49218;DHT22;35045;51.194;7.268;2023-05-07T07:00:39;17.30;99.90
49218;DHT22;35045;51.194;7.268;2023-05-07T07:03:07;17.40;99.90
49218;DHT22;35045;51.194;7.268;2023-05-07T07:05:33;17.50;99.90
49218;DHT22;35045;51.194;7.268;2023-05-07T07:07:59;17.70;99.90
49218;DHT22;35045;51.194;7.268;2023-05-07T07:10:25;17.80;99.90
49218;DHT22;35045;51.194;7.268;2023-05-07T07:12:51;17.90;99.90
49218;DHT22;35045;51.194;7.268;2023-05-07T07:15:19;18.00;99.90
49218;DHT22;35045;51.194;7.268;2023-05-07T07:17:46;18.10;99.90
49218;DHT22;35045;51.194;7.268;2023-05-07T07:20:13;18.20;99.90
49218;DHT22;35045;51.194;7.268;2023-05-07T07:22:39;18.20;99.90
49218;DHT22;35045;51.194;7.268;2023-05-07T07:25:06;18.30;99.90
49218;DHT22;35045;51.194;7.268;2023-05-07T07:27:32;18.40;99.90
49218;DHT22;35045;51.194;7.268;2023-05-07T07:29:58;18.50;99.90
49218;DHT22;35045;51.194;7.268;2023-05-07T07:32:24;18.50;99.90
49218;DHT22;35045;51.194;7.268;2023-05-07T07:34:50;18.70;99.90
49218;DHT22;35045;51.194;7.268;2023-05-07T07:37:16;18.70;99.90
49218;DHT22;35045;51.194;7.268;2023-05-07T07:39:42;18.70;99.90
49218;DHT22;35045;51.194;7.268;2023-05-07T07:42:08;18.80;99.90
49218;DHT22;35045;51.194;7.268;2023-05-07T07:44:35;18.90;99.90
49218;DHT22;35045;51.194;7.268;2023-05-07T07:47:01;19.00;99.90
49218;DHT22;35045;51.194;7.268;2023-05-07T07:49:27;18.90;99.90
49218;DHT22;35045;51.194;7.268;2023-05-07T07:51:53;19.00;99.90
49218;DHT22;35045;51.194;7.268;2023-05-07T07:54:19;19.00;99.90
49218;DHT22;35045;51.194;7.268;2023-05-07T07:56:45;19.10;99.90
49218;DHT22;35045;51.194;7.268;2023-05-07T07:59:12;19.10;99.90
49218;DHT22;35045;51.194;7.268;2023-05-07T08:01:39;19.30;99.90
49218;DHT22;35045;51.194;7.268;2023-05-07T08:04:05;19.40;99.90
49218;DHT22;35045;51.194;7.268;2023-05-07T08:06:32;19.40;99.90
49218;DHT22;35045;51.194;7.268;2023-05-07T08:08:58;19.30;99.90
49218;DHT22;35045;51.194;7.268;2023-05-07T08:11:24;19.20;99.90
49218;DHT22;35045;51.194;7.268;2023-05-07T08:13:51;19.30;99.90
49218;DHT22;35045;51.194;7.268;2023-05-07T08:16:17;19.40;99.90
49218;DHT22;35045;51.194;7.268;2023-05-07T08:18:43;19.60;99.90
49218;DHT22;35045;51.194;7.268;2023-05-07T08:21:10;19.70;99.90
49218;DHT22;35045;51.194;7.268;2023-05-07T08:23:36;19.80;99.90
49218;DHT22;35045;51.194;7.268;2023-05-07T08:26:02;20.00;99.90
49218;DHT22;35045;51.194;7.268;2023-05-07T08:28:28;20.20;99.90
49218;DHT22;35045;51.194;7.268;2023-05-07T08:30:54;20.20;99.90
49218;DHT22;35045;51.194;7.268;2023-05-07T08:33:22;20.40;99.90
49218;DHT22;35045;51.194;7.268;2023-05-07T08:35:48;20.40;99.90
49218;DHT22;35045;51.194;7.268;2023-05-07T08:38:14;20.40;99.90
49218;DHT22;35045;51.194;7.268;2023-05-07T08:40:40;20.40;99.90
49218;DHT22;35045;51.194;7.268;2023-05-07T08:43:07;20.50;99.90
49218;DHT22;35045;51.194;7.268;2023-05-07T08:45:34;20.50;99.90
49218;DHT22;35045;51.194;7.268;2023-05-07T08:48:05;20.50;99.90
49218;DHT22;35045;51.194;7.268;2023-05-07T08:50:36;20.50;99.90
49218;DHT22;35045;51.194;7.268;2023-05-07T08:53:05;20.50;99.90
49218;DHT22;35045;51.194;7.268;2023-05-07T08:55:31;20.50;99.90
49218;DHT22;35045;51.194;7.268;2023-05-07T08:57:59;20.50;99.90
49218;DHT22;35045;51.194;7.268;2023-05-07T09:00:25;20.60;99.90
49218;DHT22;35045;51.194;7.268;2023-05-07T09:02:52;20.80;99.90
49218;DHT22;35045;51.194;7.268;2023-05-07T09:05:19;20.90;99.90
49218;DHT22;35045;51.194;7.268;2023-05-07T09:07:46;21.00;99.90
49218;DHT22;35045;51.194;7.268;2023-05-07T09:10:12;21.10;99.90
49218;DHT22;35045;51.194;7.268;2023-05-07T09:12:39;21.10;99.90
49218;DHT22;35045;51.194;7.268;2023-05-07T09:15:06;21.10;99.90
49218;DHT22;35045;51.194;7.268;2023-05-07T09:17:32;21.20;99.90
49218;DHT22;35045;51.194;7.268;2023-05-07T09:20:03;21.40;99.90
49218;DHT22;35045;51.194;7.268;2023-05-07T09:22:35;21.50;99.90
49218;DHT22;35045;51.194;7.268;2023-05-07T09:25:02;21.60;99.90
49218;DHT22;35045;51.194;7.268;2023-05-07T09:27:30;21.70;99.90
49218;DHT22;35045;51.194;7.268;2023-05-07T09:29:56;21.90;99.90
49218;DHT22;35045;51.194;7.268;2023-05-07T09:32:22;22.10;99.90
49218;DHT22;35045;51.194;7.268;2023-05-07T09:34:48;22.10;98.90
49218;DHT22;35045;51.194;7.268;2023-05-07T09:37:15;22.10;98.90
49218;DHT22;35045;51.194;7.268;2023-05-07T09:39:43;22.10;99.20
49218;DHT22;35045;51.194;7.268;2023-05-07T09:42:10;22.20;98.50
49218;DHT22;35045;51.194;7.268;2023-05-07T09:44:38;22.20;98.90
49218;DHT22;35045;51.194;7.268;2023-05-07T09:47:05;22.20;98.70
49218;DHT22;35045;51.194;7.268;2023-05-07T09:49:35;22.10;98.80
49218;DHT22;35045;51.194;7.268;2023-05-07T09:52:04;22.20;99.00
49218;DHT22;35045;51.194;7.268;2023-05-07T09:54:33;22.30;99.40
49218;DHT22;35045;51.194;7.268;2023-05-07T09:57:04;22.20;98.60
49218;DHT22;35045;51.194;7.268;2023-05-07T09:59:32;22.30;98.50
49218;DHT22;35045;51.194;7.268;2023-05-07T10:01:59;22.50;98.20
49218;DHT22;35045;51.194;7.268;2023-05-07T10:04:27;22.50;98.30
49218;DHT22;35045;51.194;7.268;2023-05-07T10:06:54;22.60;97.90
49218;DHT22;35045;51.194;7.268;2023-05-07T10:09:21;22.70;98.30
49218;DHT22;35045;51.194;7.268;2023-05-07T10:11:49;22.90;96.90
49218;DHT22;35045;51.194;7.268;2023-05-07T10:14:16;22.80;96.70
49218;DHT22;35045;51.194;7.268;2023-05-07T10:16:43;22.80;96.80
49218;DHT22;35045;51.194;7.268;2023-05-07T10:19:09;22.80;97.40
49218;DHT22;35045;51.194;7.268;2023-05-07T10:21:37;22.80;97.40
49218;DHT22;35045;51.194;7.268;2023-05-07T10:24:10;22.70;96.70
49218;DHT22;35045;51.194;7.268;2023-05-07T10:26:48;22.70;96.70
49218;DHT22;35045;51.194;7.268;2023-05-07T10:29:30;22.70;96.50
49218;DHT22;35045;51.194;7.268;2023-05-07T10:35:01;22.80;97.40
49218;DHT22;35045;51.194;7.268;2023-05-07T10:37:28;23.00;96.70
49218;DHT22;35045;51.194;7.268;2023-05-07T10:39:55;23.10;95.70
49218;DHT22;35045;51.194;7.268;2023-05-07T10:42:21;23.30;96.50
49218;DHT22;35045;51.194;7.268;2023-05-07T10:44:48;23.60;97.10
49218;DHT22;35045;51.194;7.268;2023-05-07T10:47:15;23.60;95.30
49218;DHT22;35045;51.194;7.268;2023-05-07T10:52:16;23.70;96.20
49218;DHT22;35045;51.194;7.268;2023-05-07T10:54:44;24.00;95.70
49218;DHT22;35045;51.194;7.268;2023-05-07T10:59:57;24.40;94.70
49218;DHT22;35045;51.194;7.268;2023-05-07T11:05:30;24.60;94.90
49218;DHT22;35045;51.194;7.268;2023-05-07T11:08:01;24.30;93.30
49218;DHT22;35045;51.194;7.268;2023-05-07T11:10:53;24.20;94.20
49218;DHT22;35045;51.194;7.268;2023-05-07T11:13:42;24.20;94.90
49218;DHT22;35045;51.194;7.268;2023-05-07T11:16:23;24.20;94.20
49218;DHT22;35045;51.194;7.268;2023-05-07T11:18:54;24.00;94.10
49218;DHT22;35045;51.194;7.268;2023-05-07T11:21:37;23.80;94.90
49218;DHT22;35045;51.194;7.268;2023-05-07T11:24:04;23.70;95.30
49218;DHT22;35045;51.194;7.268;2023-05-07T11:29:11;23.30;94.70
49218;DHT22;35045;51.194;7.268;2023-05-07T11:31:38;23.10;95.00
49218;DHT22;35045;51.194;7.268;2023-05-07T11:34:05;23.00;95.00
49218;DHT22;35045;51.194;7.268;2023-05-07T11:36:32;23.00;95.50
49218;DHT22;35045;51.194;7.268;2023-05-07T11:38:59;22.90;95.40
49218;DHT22;35045;51.194;7.268;2023-05-07T11:41:35;22.80;95.40
49218;DHT22;35045;51.194;7.268;2023-05-07T11:44:02;22.70;95.40
49218;DHT22;35045;51.194;7.268;2023-05-07T11:46:29;22.70;95.20
49218;DHT22;35045;51.194;7.268;2023-05-07T11:48:56;22.60;95.20
49218;DHT22;35045;51.194;7.268;2023-05-07T11:51:24;22.40;95.30
49218;DHT22;35045;51.194;7.268;2023-05-07T11:53:52;22.20;95.30
49218;DHT22;35045;51.194;7.268;2023-05-07T11:56:18;22.20;95.60
49218;DHT22;35045;51.194;7.268;2023-05-07T11:58:46;22.10;95.70
49218;DHT22;35045;51.194;7.268;2023-05-07T12:01:14;22.10;96.00
49218;DHT22;35045;51.194;7.268;2023-05-07T12:03:42;22.00;96.00
49218;DHT22;35045;51.194;7.268;2023-05-07T12:06:09;22.00;96.30
49218;DHT22;35045;51.194;7.268;2023-05-07T12:08:40;21.70;98.00
49218;DHT22;35045;51.194;7.268;2023-05-07T12:11:08;21.50;98.80
49218;DHT22;35045;51.194;7.268;2023-05-07T12:13:35;21.30;99.00
49218;DHT22;35045;51.194;7.268;2023-05-07T12:16:02;21.10;99.40
49218;DHT22;35045;51.194;7.268;2023-05-07T12:18:31;20.90;99.70
49218;DHT22;35045;51.194;7.268;2023-05-07T12:20:59;21.00;99.70
49218;DHT22;35045;51.194;7.268;2023-05-07T12:23:25;21.00;99.90
49218;DHT22;35045;51.194;7.268;2023-05-07T12:25:51;21.00;99.90
49218;DHT22;35045;51.194;7.268;2023-05-07T12:28:19;20.90;99.90
49218;DHT22;35045;51.194;7.268;2023-05-07T12:30:47;21.00;99.90
49218;DHT22;35045;51.194;7.268;2023-05-07T12:33:24;21.10;99.90
49218;DHT22;35045;51.194;7.268;2023-05-07T12:35:50;21.20;99.90
49218;DHT22;35045;51.194;7.268;2023-05-07T12:38:18;21.30;99.90
49218;DHT22;35045;51.194;7.268;2023-05-07T12:40:47;21.30;99.90
49218;DHT22;35045;51.194;7.268;2023-05-07T12:43:20;21.30;99.90
49218;DHT22;35045;51.194;7.268;2023-05-07T12:45:48;21.30;99.90
49218;DHT22;35045;51.194;7.268;2023-05-07T12:48:14;21.40;99.90
49218;DHT22;35045;51.194;7.268;2023-05-07T12:50:41;21.20;99.90
49218;DHT22;35045;51.194;7.268;2023-05-07T12:53:07;21.30;99.90
49218;DHT22;35045;51.194;7.268;2023-05-07T12:55:41;21.40;99.90
49218;DHT22;35045;51.194;7.268;2023-05-07T12:58:08;21.30;99.90
49218;DHT22;35045;51.194;7.268;2023-05-07T13:00:39;21.10;99.90
49218;DHT22;35045;51.194;7.268;2023-05-07T13:03:06;21.10;99.90
49218;DHT22;35045;51.194;7.268;2023-05-07T13:05:32;20.90;99.90
49218;DHT22;35045;51.194;7.268;2023-05-07T13:07:59;20.80;99.90
49218;DHT22;35045;51.194;7.268;2023-05-07T13:10:27;20.70;99.90
49218;DHT22;35045;51.194;7.268;2023-05-07T13:12:54;20.50;99.90
49218;DHT22;35045;51.194;7.268;2023-05-07T13:15:21;20.40;99.90
49218;DHT22;35045;51.194;7.268;2023-05-07T13:17:47;20.30;99.90
49218;DHT22;35045;51.194;7.268;2023-05-07T13:20:13;20.10;99.90
49218;DHT22;35045;51.194;7.268;2023-05-07T13:22:40;19.90;99.90
49218;DHT22;35045;51.194;7.268;2023-05-07T13:25:06;19.90;99.90
49218;DHT22;35045;51.194;7.268;2023-05-07T13:27:32;19.80;99.90
49218;DHT22;35045;51.194;7.268;2023-05-07T13:30:04;19.60;99.90
49218;DHT22;35045;51.194;7.268;2023-05-07T13:32:30;19.50;99.90
49218;DHT22;35045;51.194;7.268;2023-05-07T13:34:57;19.50;99.90
49218;DHT22;35045;51.194;7.268;2023-05-07T13:37:23;19.50;99.90
49218;DHT22;35045;51.194;7.268;2023-05-07T13:39:49;19.40;99.90
49218;DHT22;35045;51.194;7.268;2023-05-07T13:42:16;19.30;99.90
49218;DHT22;35045;51.194;7.268;2023-05-07T13:44:42;19.30;99.90
49218;DHT22;35045;51.194;7.268;2023-05-07T13:47:10;19.30;99.90
49218;DHT22;35045;51.194;7.268;2023-05-07T13:49:36;19.10;99.90
49218;DHT22;35045;51.194;7.268;2023-05-07T13:52:03;19.10;99.90
49218;DHT22;35045;51.194;7.268;2023-05-07T13:54:29;18.90;99.90
49218;DHT22;35045;51.194;7.268;2023-05-07T13:56:55;18.80;99.90
49218;DHT22;35045;51.194;7.268;2023-05-07T13:59:21;18.60;99.90
49218;DHT22;35045;51.194;7.268;2023-05-07T14:01:48;18.60;99.90
49218;DHT22;35045;51.194;7.268;2023-05-07T14:04:14;18.70;99.90
49218;DHT22;35045;51.194;7.268;2023-05-07T14:06:40;18.80;99.90
49218;DHT22;35045;51.194;7.268;2023-05-07T14:09:06;19.00;99.90
49218;DHT22;35045;51.194;7.268;2023-05-07T14:11:32;19.10;99.90
49218;DHT22;35045;51.194;7.268;2023-05-07T14:13:59;19.30;99.90
49218;DHT22;35045;51.194;7.268;2023-05-07T14:16:25;19.60;99.90
49218;DHT22;35045;51.194;7.268;2023-05-07T14:18:51;19.70;99.90
49218;DHT22;35045;51.194;7.268;2023-05-07T14:21:17;19.70;99.90
49218;DHT22;35045;51.194;7.268;2023-05-07T14:23:43;19.70;99.90
49218;DHT22;35045;51.194;7.268;2023-05-07T14:26:09;19.60;99.90
49218;DHT22;35045;51.194;7.268;2023-05-07T14:28:35;19.40;99.90
49218;DHT22;35045;51.194;7.268;2023-05-07T14:31:01;19.40;99.90
49218;DHT22;35045;51.194;7.268;2023-05-07T14:33:27;19.30;99.90
49218;DHT22;35045;51.194;7.268;2023-05-07T14:35:54;19.20;99.90
49218;DHT22;35045;51.194;7.268;2023-05-07T14:38:20;19.10;99.90
49218;DHT22;35045;51.194;7.268;2023-05-07T14:40:46;19.00;99.90
49218;DHT22;35045;51.194;7.268;2023-05-07T14:43:13;19.00;99.90
49218;DHT22;35045;51.194;7.268;2023-05-07T14:45:39;18.90;99.90
49218;DHT22;35045;51.194;7.268;2023-05-07T14:48:05;18.80;99.90
49218;DHT22;35045;51.194;7.268;2023-05-07T14:50:31;18.80;99.90
49218;DHT22;35045;51.194;7.268;2023-05-07T14:52:57;18.80;99.90
49218;DHT22;35045;51.194;7.268;2023-05-07T14:55:23;18.80;99.90
49218;DHT22;35045;51.194;7.268;2023-05-07T14:57:50;18.90;99.90
49218;DHT22;35045;51.194;7.268;2023-05-07T15:00:16;18.80;99.90
49218;DHT22;35045;51.194;7.268;2023-05-07T15:02:42;18.80;99.90
49218;DHT22;35045;51.194;7.268;2023-05-07T15:05:08;18.70;99.90
49218;DHT22;35045;51.194;7.268;2023-05-07T15:07:35;18.70;99.90
49218;DHT22;35045;51.194;7.268;2023-05-07T15:10:01;18.60;99.90
49218;DHT22;35045;51.194;7.268;2023-05-07T15:12:27;18.50;99.90
49218;DHT22;35045;51.194;7.268;2023-05-07T15:14:53;18.40;99.90
49218;DHT22;35045;51.194;7.268;2023-05-07T15:17:19;18.30;99.90
49218;DHT22;35045;51.194;7.268;2023-05-07T15:19:45;18.20;99.90
49218;DHT22;35045;51.194;7.268;2023-05-07T15:22:11;18.20;99.90
49218;DHT22;35045;51.194;7.268;2023-05-07T15:24:37;18.20;99.90
49218;DHT22;35045;51.194;7.268;2023-05-07T15:27:04;18.30;99.90
49218;DHT22;35045;51.194;7.268;2023-05-07T15:29:30;18.20;99.90
49218;DHT22;35045;51.194;7.268;2023-05-07T15:31:56;18.20;99.90
49218;DHT22;35045;51.194;7.268;2023-05-07T15:34:23;18.10;99.90
49218;DHT22;35045;51.194;7.268;2023-05-07T15:36:50;18.10;99.90
49218;DHT22;35045;51.194;7.268;2023-05-07T15:39:16;18.10;99.90
49218;DHT22;35045;51.194;7.268;2023-05-07T15:41:42;18.00;99.90
49218;DHT22;35045;51.194;7.268;2023-05-07T15:44:08;18.00;99.90